Flight Track Log - Related Links

Times and Time Zones

All times are in EDT time to prevent confusion due to time zone crossing. See the GPD111 flight status page for this flight to view local times or setup timezone preferences in your user account.

Time Position Orientation Groundspeed Altitude Reporting Facility
EDT Latitude Longitude Course Direction KTS MPH feet Rate Location/Type
Thu 11:51:57 AM 42.9500 -71.4333 340° North 118 136 900  Level KA90
Thu 11:53:09 AM 42.9833 -71.4500 340° North 150 173 2,700 1,486 Climbing KA90
Thu 11:55:27 AM 43.0161 -71.5625 292° West 156 180 6,100 1,667 Climbing Boston Center
Thu 11:56:27 AM 42.9725 -71.6086 218° Southwest 146 168 8,200 1,400 Climbing Boston Center
Thu 11:57:27 AM 42.9311 -71.6517 217° Southwest 175 201 8,900 950 Climbing Boston Center
Thu 11:58:27 AM 42.8878 -71.6947 216° Southwest 193 222 10,100 600 Climbing Boston Center
Thu 11:59:27 AM 42.8442 -71.7406 218° Southwest 207 238 10,100  Level Boston Center
Thu 12:00:27 PM 42.7883 -71.7978 217° Southwest 225 259 10,100 -50 Level Boston Center
Thu 12:01:27 PM 42.7406 -71.8436 215° Southwest 231 266 10,000  Descending Boston Center
Thu 12:02:27 PM 42.6742 -71.8867 205° Southwest 241 277 10,100 50 Climbing Boston Center
Thu 12:03:27 PM 42.6222 -71.9153 202° Southwest 241 277 10,100  Level Boston Center
Thu 12:04:54 PM 42.5308 -71.9753 206° Southwest 232 267 10,100 -47 Level Boston Center
Thu 12:05:36 PM 42.4869 -72.0008 203° Southwest 228 262 10,000 -105 Descending Boston Center
Thu 12:05:51 PM 42.4744 -71.9981 171° South 229 264 10,000 80 Level Boston Center
Thu 12:06:51 PM 42.4289 -72.0239 203° Southwest 218 251 10,100  Climbing Boston Center
Thu 12:07:43 PM 42.3747 -72.0578 205° Southwest 200 230 10,000  Descending Boston Center
Thu 12:08:32 PM 42.3353 -72.0833 206° Southwest 196 226 10,100 88 Climbing Boston Center
Thu 12:08:51 PM 42.3353 -72.0778 90° East 212 244 10,100 -590 Level Boston Center
Thu 12:09:33 PM 42.2853 -72.1144 208° Southwest 196 226 9,500 -800 Descending Boston Center
Thu 12:09:51 PM 42.2728 -72.1203 199° South 207 238 9,300 -1,000 Descending Boston Center
Thu 12:10:33 PM 42.2353 -72.1486 209° Southwest 201 231 8,500 -1,100 Descending Boston Center
Thu 12:10:51 PM 42.2228 -72.1542 198° South 201 231 8,200 -984 Descending Boston Center
Thu 12:11:34 PM 42.1833 -72.1822 208° Southwest 205 236 7,500 -900 Descending Boston Center
Thu 12:11:51 PM 42.1708 -72.1908 207° Southwest 201 231 7,300 -1,000 Descending Boston Center
Thu 12:12:34 PM 42.1314 -72.2189 208° Southwest 214 246 6,500 -1,100 Descending Boston Center
Thu 12:12:51 PM 42.1167 -72.2275 203° Southwest 206 237 6,200 -393 Descending Boston Center
Thu 12:13:35 PM 42.0792 -72.2556 209° Southwest 210 242 6,100 -100 Descending Boston Center
Thu 12:13:51 PM 42.0667 -72.2611 198° South 211 243 6,100  Level Boston Center
Thu 12:14:30 PM 42.0336 -72.2864 210° Southwest 198 228 6,100  Level Boston Center
Thu 12:14:51 PM 42.0169 -72.2947 200° South 200 230 6,100  Level Boston Center
Thu 12:15:30 PM 41.9814 -72.3200 208° Southwest 204 235 6,100  Level Boston Center
Thu 12:15:51 PM 41.9669 -72.3283 203° Southwest 200 230 6,100 -97 Level Boston Center
Thu 12:16:32 PM 41.9378 -72.3481 207° Southwest 180 207 6,000 -300 Descending Boston Center
Thu 12:16:51 PM 41.9253 -72.3564 206° Southwest 184 212 5,800 -814 Descending Boston Center
Thu 12:17:31 PM 41.8939 -72.3817 211° Southwest 169 194 5,200 -1,000 Descending Boston Center
Thu 12:17:51 PM 41.8836 -72.3872 202° Southwest 173 199 4,800 -984 Descending Boston Center
Thu 12:18:32 PM 41.8522 -72.4094 208° Southwest 169 194 4,200 -800 Descending Boston Center
Thu 12:18:51 PM 41.8439 -72.4150 206° Southwest 173 199 4,000 -98 Descending Boston Center
Thu 12:19:33 PM 41.8064 -72.4372 204° Southwest 171 197 4,100 56 Climbing Boston Center
Thu 12:20:39 PM 41.7606 -72.4708 209° Southwest 178 205 4,100  Level Boston Center
Thu 12:21:34 PM 41.7208 -72.4958 205° Southwest 171 197 4,100  Level Boston Center
Thu 12:22:29 PM 41.6833 -72.5236 209° Southwest 173 199 4,100  Level Boston Center
Thu 12:23:29 PM 41.6375 -72.5567 208° Southwest 175 201 4,100  Level Boston Center
Thu 12:24:36 PM 41.6186 -72.6261 250° West 184 212 4,100  Level Boston Center
Thu 12:25:37 PM 41.5997 -72.6956 250° West 197 227 4,100  Level Boston Center
Thu 12:26:31 PM 41.5850 -72.7592 253° West 204 235 4,100 -67 Level Boston Center
Thu 12:28:37 PM 41.5500 -72.9000 252° West 206 237 3,900 -65 Descending New York TRACON
Thu 12:29:37 PM 41.5000 -72.9500 217° Southwest 187 215 3,900  Level New York TRACON
Thu 12:30:37 PM 41.4667 -72.9833 217° Southwest 182 209 3,900  Level New York TRACON
Thu 12:31:37 PM 41.4167 -73.0000 194° South 179 206 3,900 -350 Level New York TRACON
Thu 12:32:37 PM 41.3667 -73.0333 207° Southwest 185 213 3,200 -500 Descending New York TRACON
Thu 12:33:37 PM 41.3167 -73.0500 194° South 172 198 2,900 -143 Descending New York TRACON
Thu 12:34:43 PM 41.3333 -73.1000 294° West 196 226 2,900 -238 Level New York TRACON
Thu 12:35:43 PM 41.3833 -73.1167 346° North 172 198 2,400 -500 Descending New York TRACON

Login

Don't have an account? Register now (free) for customized features, flight alerts, and more!